Time;durP1;ratioP1;P1;durP2;ratioP2;P2;SDS_P1;SDS_P2;PMS_P1;PMS_P2;Temp;Humidity;BMP_temperature;BMP_pressure;BME280_temperature;BME280_humidity;BME280_pressure;Samples;Min_cycle;Max_cycle;Signal;HPM_P1;HPM_P2
2022/08/26 04:01:44;;;;;;;14.10;12.77;;;20.70;99.90;;;;;;5379230;23;20505;-61
2022/08/26 04:04:11;;;;;;;14.37;12.00;;;20.60;99.90;;;;;;4977276;28;20466;-61
2022/08/26 04:06:41;;;;;;;12.67;11.63;;;20.60;99.90;;;;;;4976611;28;20466;-61
2022/08/26 04:09:12;;;;;;;13.53;12.37;;;20.50;99.90;;;;;;4977125;28;20441;-62
2022/08/26 04:11:40;;;;;;;12.77;11.77;;;20.50;99.90;;;;;;4977070;28;20478;-61
2022/08/26 04:14:09;;;;;;;12.70;11.57;;;20.50;99.90;;;;;;4977011;28;20461;-61
2022/08/26 04:16:37;;;;;;;14.23;12.83;;;20.40;99.90;;;;;;4977043;28;20454;-60
2022/08/26 04:19:05;;;;;;;13.37;12.33;;;20.40;99.90;;;;;;4976909;28;20474;-61
2022/08/26 04:21:32;;;;;;;12.90;11.80;;;20.30;99.90;;;;;;4976796;28;20489;-61
2022/08/26 04:23:59;;;;;;;13.30;12.07;;;20.30;99.90;;;;;;4976754;28;20450;-61
2022/08/26 04:26:26;;;;;;;12.20;11.20;;;20.30;99.90;;;;;;4976738;28;20481;-61
2022/08/26 04:28:54;;;;;;;13.57;12.47;;;20.30;99.90;;;;;;4977265;28;20501;-61
2022/08/26 04:31:21;;;;;;;13.33;11.83;;;20.30;99.90;;;;;;4976660;28;20541;-61
2022/08/26 04:33:49;;;;;;;14.47;13.03;;;20.30;99.90;;;;;;4976732;28;20462;-61
2022/08/26 04:36:18;;;;;;;14.80;13.50;;;20.20;99.90;;;;;;4976753;28;20509;-61
2022/08/26 04:38:45;;;;;;;15.63;13.87;;;20.20;99.90;;;;;;4976089;28;21044;-61
2022/08/26 04:41:12;;;;;;;16.00;14.40;;;20.20;99.90;;;;;;4976392;28;20530;-61
2022/08/26 04:43:40;;;;;;;14.80;13.47;;;20.10;99.90;;;;;;4976535;28;20554;-61
2022/08/26 04:46:08;;;;;;;16.33;15.03;;;20.10;99.90;;;;;;4976422;28;20455;-61
2022/08/26 04:48:34;;;;;;;16.33;14.83;;;20.10;99.90;;;;;;4976127;28;20815;-61
2022/08/26 04:51:03;;;;;;;16.20;14.80;;;20.00;99.90;;;;;;4976213;28;20478;-61
2022/08/26 04:53:31;;;;;;;15.30;13.90;;;20.10;99.90;;;;;;4976224;28;20486;-61
2022/08/26 04:55:58;;;;;;;15.27;13.90;;;20.10;99.90;;;;;;4976152;28;20443;-61
2022/08/26 04:58:25;;;;;;;15.23;13.83;;;20.10;99.90;;;;;;4975803;28;20966;-61
2022/08/26 05:00:55;;;;;;;13.60;12.50;;;20.10;99.90;;;;;;4975687;28;20997;-61
2022/08/26 05:03:23;;;;;;;13.60;12.60;;;20.20;99.90;;;;;;4975824;28;20454;-61
2022/08/26 05:05:51;;;;;;;15.30;13.93;;;20.20;99.90;;;;;;4976072;28;20485;-61
2022/08/26 05:08:19;;;;;;;14.57;13.30;;;20.30;99.90;;;;;;4976149;28;20458;-61
2022/08/26 05:10:51;;;;;;;13.80;12.73;;;20.40;99.90;;;;;;4975604;28;20982;-61
2022/08/26 05:13:19;;;;;;;14.03;12.93;;;20.40;99.90;;;;;;4975986;28;20443;-61
2022/08/26 05:15:47;;;;;;;14.77;13.47;;;20.50;99.90;;;;;;4976056;28;20461;-62
2022/08/26 05:18:15;;;;;;;14.60;13.20;;;20.60;99.90;;;;;;4974896;28;20553;-61
2022/08/26 05:20:45;;;;;;;15.47;13.83;;;20.70;99.90;;;;;;4975663;28;20518;-62
2022/08/26 05:23:13;;;;;;;14.97;13.33;;;20.80;99.90;;;;;;4975802;28;20451;-61
2022/08/26 05:25:41;;;;;;;13.77;12.37;;;20.90;99.90;;;;;;4975790;28;20818;-62
2022/08/26 05:28:10;;;;;;;14.07;12.87;;;20.90;99.90;;;;;;4975621;28;20455;-62
2022/08/26 05:30:38;;;;;;;13.60;12.33;;;21.00;99.90;;;;;;4975565;28;20482;-62
2022/08/26 05:33:05;;;;;;;17.07;13.53;;;21.10;99.90;;;;;;4975511;28;20513;-62
2022/08/26 05:35:33;;;;;;;14.17;12.97;;;21.20;99.90;;;;;;4975286;28;20958;-62
2022/08/26 05:38:00;;;;;;;15.77;14.37;;;21.20;99.90;;;;;;4975370;28;20475;-62
2022/08/26 05:40:28;;;;;;;14.43;12.90;;;21.20;99.90;;;;;;4975611;28;20455;-62
2022/08/26 05:42:54;;;;;;;13.60;12.40;;;21.30;99.90;;;;;;4975270;28;20466;-62
2022/08/26 05:45:26;;;;;;;13.10;11.90;;;21.30;99.90;;;;;;4975438;28;20455;-62
2022/08/26 05:47:53;;;;;;;12.93;11.93;;;21.30;99.90;;;;;;4975260;28;20442;-63
2022/08/26 05:50:21;;;;;;;12.93;11.73;;;21.40;99.90;;;;;;4975262;28;20458;-63
2022/08/26 05:52:48;;;;;;;13.07;11.97;;;21.40;99.90;;;;;;4975326;28;20859;-63
2022/08/26 05:55:15;;;;;;;14.70;11.90;;;21.50;99.90;;;;;;4975168;28;20506;-62
2022/08/26 05:57:42;;;;;;;13.13;11.80;;;21.50;99.90;;;;;;4975132;28;20476;-62
2022/08/26 06:00:11;;;;;;;13.37;12.17;;;21.60;99.90;;;;;;4975258;28;20820;-62
2022/08/26 06:02:39;;;;;;;12.53;11.23;;;21.60;99.90;;;;;;4975285;28;20870;-61
2022/08/26 06:05:06;;;;;;;19.17;12.27;;;21.70;99.90;;;;;;4975085;28;20454;-61
2022/08/26 06:10:18;;;;;;;13.13;11.93;;;21.90;99.90;;;;;;4975297;28;20421;-61
2022/08/26 06:12:44;;;;;;;12.10;10.90;;;22.00;99.90;;;;;;4974950;28;20455;-61
2022/08/26 06:15:11;;;;;;;14.53;12.53;;;22.20;99.90;;;;;;4974957;28;20481;-61
2022/08/26 06:17:39;;;;;;;16.03;10.73;;;22.20;99.90;;;;;;4974920;28;20454;-62
2022/08/26 06:20:07;;;;;;;12.17;10.83;;;22.30;99.90;;;;;;4974868;28;20466;-62
2022/08/26 06:28:02;;;;;;;12.20;11.07;;;22.40;99.90;;;;;;4975976;28;20489;-62
2022/08/26 06:30:29;;;;;;;11.17;10.17;;;22.50;99.90;;;;;;4979401;28;20481;-62
2022/08/26 06:32:57;;;;;;;10.90;9.90;;;22.50;99.90;;;;;;4978530;28;20454;-62
2022/08/26 06:35:24;;;;;;;13.03;12.00;;;22.60;99.90;;;;;;4978714;28;20455;-62
2022/08/26 06:37:50;;;;;;;10.87;9.97;;;22.60;99.90;;;;;;4978736;28;20482;-62
2022/08/26 06:40:19;;;;;;;11.03;10.13;;;22.70;99.90;;;;;;4978765;28;20486;-62
2022/08/26 06:42:46;;;;;;;11.53;10.40;;;22.90;99.90;;;;;;4978514;28;20541;-62
2022/08/26 06:45:13;;;;;;;10.93;9.80;;;22.90;99.90;;;;;;4978565;28;20454;-62
2022/08/26 06:47:39;;;;;;;9.97;9.03;;;23.10;99.90;;;;;;4979081;28;20458;-61
2022/08/26 06:50:08;;;;;;;10.33;9.40;;;23.20;99.90;;;;;;4978794;28;20443;-62
2022/08/26 06:52:35;;;;;;;10.73;9.77;;;23.40;99.90;;;;;;4978424;28;20482;-63
2022/08/26 06:55:02;;;;;;;10.53;9.60;;;23.60;99.90;;;;;;4978531;28;20458;-62
2022/08/26 06:57:31;;;;;;;9.30;8.60;;;23.80;99.90;;;;;;4978531;28;20462;-63
2022/08/26 06:59:58;;;;;;;9.37;8.73;;;24.10;99.90;;;;;;4978164;28;20906;-62
2022/08/26 07:02:25;;;;;;;10.47;9.57;;;24.50;99.90;;;;;;4978857;28;20598;-63
2022/08/26 07:04:51;;;;;;;8.93;8.13;;;24.90;99.90;;;;;;4978375;28;20450;-62
2022/08/26 07:07:19;;;;;;;9.70;8.90;;;25.20;99.90;;;;;;4978102;28;20450;-62
2022/08/26 07:09:46;;;;;;;10.73;9.53;;;25.40;99.90;;;;;;4978101;28;20496;-62
2022/08/26 07:12:13;;;;;;;8.47;7.93;;;25.30;99.90;;;;;;4977818;28;20473;-62
2022/08/26 07:14:39;;;;;;;8.63;7.83;;;25.40;99.90;;;;;;4978082;28;20477;-63
2022/08/26 07:17:06;;;;;;;9.30;8.60;;;25.50;99.90;;;;;;4977605;28;20961;-63
2022/08/26 07:19:33;;;;;;;8.77;8.00;;;25.60;99.90;;;;;;4977988;28;20485;-62
2022/08/26 07:22:01;;;;;;;9.17;8.47;;;25.80;99.90;;;;;;4977943;28;20470;-62
2022/08/26 07:24:30;;;;;;;9.93;9.03;;;26.00;99.90;;;;;;4978006;28;20463;-63
2022/08/26 07:26:59;;;;;;;10.83;8.90;;;26.10;99.90;;;;;;4977946;28;20458;-63
2022/08/26 07:29:26;;;;;;;9.23;8.53;;;25.90;99.90;;;;;;4977902;28;20439;-63
2022/08/26 07:31:53;;;;;;;10.87;9.03;;;26.00;99.90;;;;;;4977887;28;20807;-63
2022/08/26 07:34:21;;;;;;;11.30;9.10;;;26.20;99.90;;;;;;4977474;28;20863;-63
2022/08/26 07:36:49;;;;;;;8.90;7.97;;;26.30;99.90;;;;;;4977386;28;20949;-63
2022/08/26 07:39:15;;;;;;;9.30;8.13;;;26.40;99.90;;;;;;4977502;28;20474;-63
2022/08/26 07:41:46;;;;;;;9.17;8.23;;;26.50;99.90;;;;;;4977775;28;20479;-63
2022/08/26 07:44:12;;;;;;;8.93;8.13;;;26.70;99.90;;;;;;4977602;28;20439;-64
2022/08/26 07:46:40;;;;;;;8.63;8.03;;;26.80;99.90;;;;;;4977480;28;20454;-64
2022/08/26 07:49:07;;;;;;;9.93;8.93;;;27.00;99.90;;;;;;4977891;28;20542;-63
2022/08/26 07:51:34;;;;;;;10.30;9.10;;;27.20;99.90;;;;;;4977467;28;20481;-63
2022/08/26 07:54:01;;;;;;;13.93;9.37;;;27.30;99.90;;;;;;4978277;28;20451;-63
2022/08/26 07:56:28;;;;;;;9.40;8.50;;;27.60;99.90;;;;;;4977461;28;20443;-63
2022/08/26 07:58:56;;;;;;;9.70;8.10;;;27.90;99.90;;;;;;4977260;28;20573;-63
2022/08/26 08:01:25;;;;;;;11.10;8.57;;;28.30;99.90;;;;;;4977160;28;20486;-63
2022/08/26 08:03:53;;;;;;;9.13;7.77;;;28.70;99.90;;;;;;4977291;28;20489;-64
2022/08/26 08:06:21;;;;;;;10.33;8.83;;;28.80;99.50;;;;;;4976962;28;20969;-62
2022/08/26 08:08:48;;;;;;;10.73;7.50;;;29.00;98.30;;;;;;4976889;28;20841;-63
2022/08/26 08:11:15;;;;;;;8.23;7.43;;;29.10;97.40;;;;;;4977081;28;20525;-63
2022/08/26 08:13:41;;;;;;;7.20;6.70;;;29.10;97.50;;;;;;4977212;28;20465;-62
2022/08/26 08:16:09;;;;;;;8.53;7.83;;;29.30;97.50;;;;;;4976802;28;20461;-62
2022/08/26 08:18:36;;;;;;;9.00;8.13;;;29.70;97.00;;;;;;4976864;28;20482;-62
2022/08/26 08:21:03;;;;;;;7.70;7.10;;;30.10;95.20;;;;;;4976699;28;20482;-62
2022/08/26 08:23:31;;;;;;;8.47;7.60;;;30.50;94.60;;;;;;4976507;28;20998;-63
2022/08/26 08:26:01;;;;;;;9.20;8.30;;;31.10;93.80;;;;;;4976693;28;20942;-63
2022/08/26 08:28:28;;;;;;;7.33;6.60;;;31.60;91.80;;;;;;4976429;28;20555;-63
2022/08/26 08:30:55;;;;;;;6.77;5.87;;;32.10;90.40;;;;;;4975461;28;20929;-64
2022/08/26 08:33:23;;;;;;;13.40;7.60;;;32.50;88.50;;;;;;4976427;28;20930;-64
2022/08/26 08:35:50;;;;;;;8.10;7.30;;;32.90;84.20;;;;;;4976316;28;20825;-64
2022/08/26 08:38:16;;;;;;;10.70;7.07;;;33.30;84.40;;;;;;4976494;28;20455;-64
2022/08/26 08:40:45;;;;;;;7.27;6.77;;;33.40;81.70;;;;;;4976496;28;20478;-64
2022/08/26 08:43:13;;;;;;;10.47;7.47;;;33.70;81.30;;;;;;4976363;28;20945;-64
2022/08/26 08:45:44;;;;;;;8.30;7.50;;;33.60;80.80;;;;;;4976523;28;21004;-64
2022/08/26 08:48:17;;;;;;;8.93;8.20;;;33.70;78.20;;;;;;4976695;28;20454;-64
2022/08/26 08:50:48;;;;;;;9.43;8.63;;;33.10;78.10;;;;;;4976405;28;20509;-64
2022/08/26 08:53:19;;;;;;;9.30;8.60;;;32.60;80.70;;;;;;4975631;28;20857;-63
2022/08/26 08:56:07;;;;;;;11.03;7.90;;;32.10;80.50;;;;;;4976017;28;20969;-62
2022/08/26 08:58:47;;;;;;;12.03;8.13;;;32.00;80.70;;;;;;4976102;28;20974;-62
2022/08/26 09:01:21;;;;;;;9.70;8.70;;;31.60;83.20;;;;;;4976006;28;20493;-62
2022/08/26 09:03:55;;;;;;;8.17;7.47;;;31.70;81.80;;;;;;4975922;28;20931;-63
2022/08/26 09:06:24;;;;;;;10.73;7.00;;;31.60;81.10;;;;;;4982594;28;20446;-62
2022/08/26 09:08:51;;;;;;;8.43;7.73;;;32.00;81.20;;;;;;4977386;28;20450;-62
2022/08/26 09:11:19;;;;;;;7.50;6.73;;;32.20;79.60;;;;;;4976069;28;20549;-62
2022/08/26 09:13:54;;;;;;;7.63;5.80;;;32.20;79.20;;;;;;4976083;28;20497;-62
2022/08/26 09:16:26;;;;;;;6.87;6.27;;;32.10;76.10;;;;;;4975783;28;20934;-63
2022/08/26 09:19:05;;;;;;;6.60;6.00;;;32.10;76.50;;;;;;4975822;28;20462;-63
2022/08/26 09:21:33;;;;;;;9.17;5.93;;;32.30;74.70;;;;;;4975468;28;20474;-63
2022/08/26 09:24:00;;;;;;;5.97;5.47;;;32.90;74.60;;;;;;4975717;28;20458;-63
2022/08/26 09:26:30;;;;;;;11.93;5.70;;;33.50;75.50;;;;;;4975425;28;20945;-63
2022/08/26 09:29:00;;;;;;;9.10;5.20;;;33.80;71.70;;;;;;4975328;28;20450;-63
2022/08/26 09:31:28;;;;;;;11.80;5.67;;;34.80;69.30;;;;;;4975623;28;20485;-63
2022/08/26 09:34:11;;;;;;;12.20;6.90;;;35.40;66.60;;;;;;4975659;28;20462;-63
2022/08/26 09:36:41;;;;;;;10.73;5.10;;;36.10;62.90;;;;;;4976920;28;20434;-63
2022/08/26 09:39:24;;;;;;;11.50;5.13;;;36.40;62.50;;;;;;4977703;28;20478;-63
2022/08/26 09:42:07;;;;;;;9.27;5.80;;;37.10;58.80;;;;;;4975909;28;21007;-63
2022/08/26 09:44:34;;;;;;;5.33;4.87;;;37.50;58.40;;;;;;4975436;28;20449;-63
2022/08/26 09:47:04;;;;;;;5.60;4.67;;;37.60;57.50;;;;;;4975265;28;20458;-64
2022/08/26 09:49:34;;;;;;;7.07;5.53;;;38.00;58.20;;;;;;4975705;28;20485;-64
2022/08/26 09:52:10;;;;;;;6.60;5.90;;;38.20;57.20;;;;;;4975231;28;20501;-64
2022/08/26 09:54:38;;;;;;;5.93;5.30;;;38.90;55.70;;;;;;4975425;28;20445;-64
2022/08/26 09:57:17;;;;;;;10.63;6.00;;;38.60;56.20;;;;;;4975322;28;20548;-64
2022/08/26 09:59:44;;;;;;;9.80;6.40;;;39.00;55.70;;;;;;4975158;28;20462;-64
2022/08/26 10:02:41;;;;;;;15.23;7.43;;;38.90;54.80;;;;;;4974741;28;20877;-64
2022/08/26 10:05:15;;;;;;;6.73;6.10;;;39.40;54.50;;;;;;4975214;28;20442;-64
2022/08/26 10:07:47;;;;;;;12.30;7.30;;;39.90;53.00;;;;;;4974848;28;20696;-64
2022/08/26 10:10:20;;;;;;;10.97;7.40;;;39.90;53.90;;;;;;4975190;28;20183;-64
2022/08/26 10:13:02;;;;;;;10.80;7.67;;;40.30;52.20;;;;;;4975194;28;20477;-64
2022/08/26 10:15:39;;;;;;;11.87;6.73;;;40.60;51.00;;;;;;4975174;28;20588;-64
2022/08/26 10:18:14;;;;;;;14.13;7.10;;;40.80;51.10;;;;;;4975123;28;20206;-64
2022/08/26 10:20:57;;;;;;;7.03;6.40;;;41.00;50.40;;;;;;4974813;28;20257;-63
2022/08/26 10:23:28;;;;;;;10.68;6.45;;;41.30;51.00;;;;;;4974961;28;20187;-63
2022/08/26 10:26:00;;;;;;;13.55;6.93;;;41.40;49.40;;;;;;4974679;28;20554;-63
2022/08/26 10:28:35;;;;;;;10.27;6.72;;;41.30;49.70;;;;;;4974956;28;20191;-63
2022/08/26 10:31:08;;;;;;;6.77;5.87;;;41.40;49.60;;;;;;4974753;28;20214;-63
2022/08/26 10:33:38;;;;;;;9.40;6.23;;;41.40;49.00;;;;;;4974965;28;20183;-63
2022/08/26 10:36:47;;;;;;;14.17;6.67;;;40.50;49.40;;;;;;4974779;28;20203;-63
2022/08/26 10:38:59;;;;;;;14.80;6.63;;;40.00;52.20;;;;;;4974300;28;20670;-63
2022/08/26 10:41:31;;;;;;;8.90;6.83;;;40.10;50.00;;;;;;4974663;28;20222;-63
2022/08/26 10:44:00;;;;;;;12.90;8.40;;;39.60;50.20;;;;;;4974433;28;20937;-64
2022/08/26 10:46:38;;;;;;;10.47;7.27;;;39.20;50.60;;;;;;4974692;28;20458;-64
2022/08/26 10:49:09;;;;;;;10.90;7.40;;;38.60;50.50;;;;;;4974953;28;20438;-63
2022/08/26 10:51:42;;;;;;;7.47;6.70;;;38.20;54.10;;;;;;4974734;28;20478;-63
2022/08/26 10:54:16;;;;;;;8.83;6.53;;;38.50;52.10;;;;;;4975456;28;20446;-63
2022/08/26 10:56:49;;;;;;;11.60;7.20;;;39.00;52.20;;;;;;4974696;28;20843;-63
2022/08/26 10:59:26;;;;;;;10.50;6.40;;;39.20;50.50;;;;;;4974562;28;20469;-63
2022/08/26 11:02:00;;;;;;;10.60;7.60;;;39.60;49.10;;;;;;4974210;28;20493;-63
2022/08/26 11:04:41;;;;;;;14.30;6.23;;;40.00;49.60;;;;;;4974625;28;20434;-63
2022/08/26 11:07:35;;;;;;;9.70;6.13;;;40.20;50.90;;;;;;4974287;28;20669;-63
2022/08/26 11:10:06;;;;;;;10.97;6.40;;;39.90;48.90;;;;;;4974282;28;20203;-63
2022/08/26 11:13:03;;;;;;;11.53;6.90;;;39.20;49.30;;;;;;4974479;28;20222;-63
2022/08/26 11:16:08;;;;;;;6.90;6.30;;;38.50;49.70;;;;;;4916440;29;20935;-63
2022/08/26 11:18:41;;;;;;;9.60;6.87;;;38.10;50.00;;;;;;4978080;28;20438;-63
2022/08/26 11:21:47;;;;;;;7.83;6.87;;;38.20;51.80;;;;;;4977891;28;20485;-63
2022/08/26 11:24:43;;;;;;;9.70;6.63;;;38.10;52.90;;;;;;4977331;28;20458;-64
2022/08/26 11:28:05;;;;;;;15.77;7.90;;;38.20;52.10;;;;;;4977865;28;20460;-66
2022/08/26 11:30:50;;;;;;;8.40;5.87;;;38.20;52.40;;;;;;4978013;28;20906;-65
2022/08/26 11:33:45;;;;;;;9.47;6.87;;;38.20;54.70;;;;;;4978390;28;20442;-66
2022/08/26 11:36:39;;;;;;;10.90;6.70;;;37.80;53.00;;;;;;4978655;28;20438;-67
2022/08/26 11:39:16;;;;;;;14.50;6.17;;;37.40;53.60;;;;;;4978922;28;20461;-66
2022/08/26 11:41:44;;;;;;;8.47;6.73;;;37.30;53.60;;;;;;4978459;28;20585;-65
2022/08/26 11:44:18;;;;;;;12.57;7.30;;;36.90;54.40;;;;;;4978116;28;20516;-65
2022/08/26 11:46:53;;;;;;;11.53;8.20;;;36.60;55.10;;;;;;4979107;28;20780;-65
2022/08/26 11:49:20;;;;;;;12.80;8.00;;;36.50;55.00;;;;;;4978448;28;20445;-66
2022/08/26 11:51:47;;;;;;;10.57;7.00;;;36.60;55.10;;;;;;4979017;28;20805;-66
2022/08/26 11:54:16;;;;;;;7.80;7.10;;;36.50;54.50;;;;;;4979680;28;20839;-65
2022/08/26 11:56:46;;;;;;;11.53;7.13;;;36.50;54.90;;;;;;4980179;28;20953;-66
2022/08/26 11:59:19;;;;;;;9.90;7.33;;;36.30;56.10;;;;;;4979226;28;20438;-66
2022/08/26 12:01:50;;;;;;;10.60;8.37;;;36.40;55.00;;;;;;4977118;28;20992;-65
2022/08/26 12:04:26;;;;;;;10.53;8.50;;;36.40;55.40;;;;;;4977772;28;20445;-65
2022/08/26 12:06:53;;;;;;;12.03;7.00;;;36.20;56.20;;;;;;4977641;28;20470;-66
2022/08/26 12:09:23;;;;;;;13.50;8.00;;;36.10;55.80;;;;;;4977500;28;20454;-66
2022/08/26 12:11:51;;;;;;;10.20;7.20;;;36.20;55.40;;;;;;4978145;28;20517;-65
2022/08/26 12:14:23;;;;;;;10.63;7.33;;;36.00;55.40;;;;;;4977536;28;20454;-65
2022/08/26 12:16:50;;;;;;;11.30;7.63;;;36.00;55.70;;;;;;4978287;28;20442;-66
2022/08/26 12:19:25;;;;;;;8.40;7.20;;;35.80;56.90;;;;;;4977556;28;20455;-66
2022/08/26 12:21:55;;;;;;;7.77;7.00;;;35.60;57.30;;;;;;4978371;28;20560;-66
2022/08/26 12:24:22;;;;;;;8.53;7.73;;;35.60;57.50;;;;;;4977241;28;20802;-66
2022/08/26 12:26:50;;;;;;;11.10;7.70;;;35.50;57.80;;;;;;4976571;28;20454;-66
2022/08/26 12:29:26;;;;;;;10.00;7.50;;;35.70;57.70;;;;;;4977481;28;20485;-66
2022/08/26 12:32:07;;;;;;;18.73;8.07;;;35.70;57.40;;;;;;4976638;28;20981;-66
2022/08/26 12:34:34;;;;;;;13.60;8.80;;;35.80;57.60;;;;;;4976619;28;20442;-66
2022/08/26 12:37:01;;;;;;;16.47;8.30;;;35.60;57.60;;;;;;4976345;28;20942;-66
2022/08/26 12:39:31;;;;;;;10.20;7.40;;;35.50;57.70;;;;;;4976484;28;20452;-66
2022/08/26 12:41:59;;;;;;;11.20;8.10;;;35.50;57.30;;;;;;4976653;28;20561;-66
2022/08/26 12:44:49;;;;;;;14.03;7.20;;;35.40;57.30;;;;;;4976454;28;20465;-66
2022/08/26 12:47:22;;;;;;;11.20;7.20;;;35.40;56.10;;;;;;4972202;28;20941;-66
2022/08/26 12:49:58;;;;;;;11.60;7.10;;;35.20;57.10;;;;;;4976555;28;20438;-66
2022/08/26 12:52:31;;;;;;;15.43;7.27;;;35.00;57.10;;;;;;4977947;28;20493;-67
2022/08/26 12:55:00;;;;;;;13.60;6.80;;;35.10;55.80;;;;;;4977512;28;20517;-67
2022/08/26 12:57:30;;;;;;;12.93;6.60;;;35.20;56.60;;;;;;4976407;28;20438;-67
2022/08/26 13:00:24;;;;;;;11.33;6.17;;;35.20;55.20;;;;;;4976137;28;20485;-63
2022/08/26 13:02:51;;;;;;;9.27;6.60;;;35.30;55.10;;;;;;4976043;28;20442;-63
2022/08/26 13:05:21;;;;;;;9.70;6.33;;;35.30;54.20;;;;;;4976479;28;20450;-63
2022/08/26 13:08:10;;;;;;;10.90;6.97;;;35.50;53.60;;;;;;4976056;28;20442;-63
2022/08/26 13:10:39;;;;;;;7.07;6.00;;;35.70;53.20;;;;;;4975881;28;20481;-63
2022/08/26 13:13:06;;;;;;;10.67;6.97;;;35.80;53.30;;;;;;4975904;28;20921;-64
2022/08/26 13:15:34;;;;;;;8.03;5.87;;;35.90;53.00;;;;;;4975856;28;20453;-63
2022/08/26 13:18:01;;;;;;;11.20;6.40;;;36.00;53.50;;;;;;4975859;28;20792;-63
2022/08/26 13:20:28;;;;;;;8.63;6.73;;;36.00;51.50;;;;;;4975482;28;20478;-62
2022/08/26 13:22:55;;;;;;;6.13;5.53;;;35.80;51.90;;;;;;4976014;28;20454;-63
2022/08/26 13:25:22;;;;;;;11.37;6.47;;;35.70;52.10;;;;;;4975912;28;20529;-62
2022/08/26 13:27:49;;;;;;;10.33;7.27;;;35.70;52.10;;;;;;4975603;28;20490;-62
2022/08/26 13:30:16;;;;;;;11.50;7.43;;;35.60;53.40;;;;;;4976084;28;20457;-61
2022/08/26 13:32:44;;;;;;;13.20;7.10;;;35.10;54.80;;;;;;4975314;28;20848;-62
2022/08/26 13:35:11;;;;;;;10.20;7.20;;;34.60;55.90;;;;;;4975700;28;20461;-62
2022/08/26 13:37:37;;;;;;;11.47;6.40;;;34.20;56.30;;;;;;4974888;28;20524;-64
2022/08/26 13:40:06;;;;;;;11.20;6.77;;;33.90;56.10;;;;;;4975405;28;20478;-62
2022/08/26 13:42:32;;;;;;;10.25;5.57;;;33.60;55.30;;;;;;4974736;28;20462;-64
2022/08/26 13:44:59;;;;;;;7.93;6.60;;;33.30;55.70;;;;;;4975552;28;20570;-61
2022/08/26 13:47:27;;;;;;;12.03;7.20;;;33.10;57.10;;;;;;4975464;28;20497;-63
2022/08/26 13:49:55;;;;;;;8.90;7.33;;;32.90;57.70;;;;;;4975349;28;20462;-62
2022/08/26 13:52:22;;;;;;;10.93;7.23;;;32.70;57.90;;;;;;4974890;28;20997;-62
2022/08/26 13:54:49;;;;;;;12.53;6.70;;;32.60;57.90;;;;;;4975474;28;20458;-63
2022/08/26 13:57:15;;;;;;;11.90;6.93;;;32.60;57.30;;;;;;4975440;28;20458;-62
2022/08/26 13:59:42;;;;;;;11.53;6.17;;;32.50;56.90;;;;;;4975356;28;20459;-62
2022/08/26 14:02:09;;;;;;;6.50;5.77;;;32.30;57.10;;;;;;4974784;28;20864;-62
2022/08/26 14:04:36;;;;;;;10.10;5.73;;;32.20;58.00;;;;;;4975213;28;20490;-63
2022/08/26 14:07:04;;;;;;;10.17;5.97;;;32.10;58.00;;;;;;4975292;28;20458;-62
2022/08/26 14:09:30;;;;;;;12.10;6.60;;;32.00;57.80;;;;;;4974783;28;20972;-62
2022/08/26 14:11:57;;;;;;;15.17;7.33;;;32.00;59.20;;;;;;4975009;28;20481;-62
2022/08/26 14:14:24;;;;;;;9.97;7.10;;;31.70;59.80;;;;;;4975148;28;20513;-63
2022/08/26 14:16:51;;;;;;;15.23;7.93;;;31.60;59.90;;;;;;4975177;28;20505;-63
2022/08/26 14:19:18;;;;;;;16.10;7.40;;;31.60;61.10;;;;;;4974972;28;20455;-63
2022/08/26 14:21:45;;;;;;;15.30;8.07;;;31.60;61.30;;;;;;4974793;28;20533;-64
2022/08/26 14:24:13;;;;;;;10.73;8.30;;;31.50;63.40;;;;;;4974640;28;20439;-64
2022/08/26 14:26:40;;;;;;;11.73;7.47;;;31.50;62.20;;;;;;4975063;28;20481;-64
2022/08/26 14:29:07;;;;;;;13.23;7.23;;;31.60;62.00;;;;;;4975028;28;20494;-68
2022/08/26 14:31:35;;;;;;;13.47;7.87;;;31.50;63.30;;;;;;4975745;28;20867;-64
2022/08/26 14:34:04;;;;;;;13.17;6.87;;;31.40;62.30;;;;;;4974955;28;20457;-64
2022/08/26 14:36:31;;;;;;;19.20;8.20;;;31.50;62.90;;;;;;4974759;28;20931;-64
2022/08/26 14:39:00;;;;;;;13.50;8.07;;;31.30;62.30;;;;;;4974719;28;20484;-64
2022/08/26 14:41:30;;;;;;;19.80;8.47;;;31.30;63.40;;;;;;4974476;28;20493;-64
2022/08/26 14:43:59;;;;;;;12.50;7.60;;;31.30;65.20;;;;;;4974795;28;20481;-64
2022/08/26 14:46:28;;;;;;;14.63;7.73;;;31.20;63.80;;;;;;4974762;28;20865;-65
2022/08/26 14:48:55;;;;;;;9.30;7.40;;;31.20;64.00;;;;;;4975398;28;20459;-66
2022/08/26 14:51:22;;;;;;;12.50;8.03;;;31.20;64.40;;;;;;4978421;28;20475;-65
2022/08/26 14:56:37;;;;;;;9.73;7.93;;;30.90;63.10;;;;;;4978538;28;20434;-65
2022/08/26 14:59:04;;;;;;;10.27;7.90;;;30.90;62.60;;;;;;4978434;28;20454;-65
2022/08/26 15:01:32;;;;;;;11.53;8.70;;;30.70;63.50;;;;;;4978028;28;20528;-65
2022/08/26 15:03:59;;;;;;;22.40;9.07;;;30.70;62.90;;;;;;4978319;28;20454;-65
2022/08/26 15:06:26;;;;;;;12.60;8.50;;;30.60;64.20;;;;;;4978315;28;20458;-65
2022/08/26 15:08:54;;;;;;;12.67;11.23;;;30.50;63.00;;;;;;4978439;28;20998;-64
2022/08/26 15:11:21;;;;;;;18.67;7.60;;;30.50;63.70;;;;;;4978143;28;20489;-65
2022/08/26 15:13:49;;;;;;;11.43;8.50;;;30.40;64.20;;;;;;4978273;28;20466;-65
2022/08/26 15:16:16;;;;;;;8.57;7.47;;;30.40;64.60;;;;;;4978220;28;20458;-66
2022/08/26 15:18:42;;;;;;;12.57;8.23;;;30.30;65.10;;;;;;4977870;28;20461;-65
2022/08/26 15:21:09;;;;;;;9.77;7.53;;;30.30;64.60;;;;;;4977622;28;20886;-65
2022/08/26 15:23:38;;;;;;;11.90;8.03;;;30.30;65.40;;;;;;4978076;28;20459;-65
2022/08/26 15:26:06;;;;;;;8.60;7.70;;;30.40;65.50;;;;;;4977675;28;21012;-64
2022/08/26 15:28:33;;;;;;;10.00;7.07;;;30.30;65.80;;;;;;4978033;28;20446;-64
2022/08/26 15:31:01;;;;;;;13.60;9.27;;;30.30;66.10;;;;;;4978361;28;20466;-64
2022/08/26 15:33:28;;;;;;;24.60;21.93;;;30.30;64.90;;;;;;4977937;28;20451;-64
2022/08/26 15:35:55;;;;;;;9.67;7.60;;;30.30;64.70;;;;;;4977794;28;20486;-64
2022/08/26 15:38:22;;;;;;;13.57;7.50;;;30.30;64.60;;;;;;4977650;28;20465;-64
2022/08/26 15:40:48;;;;;;;15.47;9.23;;;30.20;64.90;;;;;;4977517;28;20493;-64
2022/08/26 15:43:15;;;;;;;12.97;11.17;;;30.20;65.30;;;;;;4977760;28;20545;-64
2022/08/26 15:45:42;;;;;;;13.73;8.07;;;30.20;65.10;;;;;;4977715;28;20462;-65
2022/08/26 15:48:10;;;;;;;19.83;9.27;;;30.20;65.30;;;;;;4977520;28;20470;-64
2022/08/26 15:50:48;;;;;;;16.70;8.57;;;30.20;65.70;;;;;;4977403;28;20462;-65
2022/08/26 15:53:15;;;;;;;16.53;8.17;;;30.20;66.60;;;;;;4977429;28;20446;-65
2022/08/26 15:55:41;;;;;;;10.80;7.80;;;30.20;67.30;;;;;;4977372;28;20487;-65
2022/08/26 15:58:09;;;;;;;11.57;7.07;;;30.10;67.80;;;;;;4977078;28;20958;-65
2022/08/26 16:00:35;;;;;;;6.90;6.20;;;29.80;68.40;;;;;;4976440;28;20473;-65
2022/08/26 16:03:02;;;;;;;15.80;5.80;;;29.40;70.20;;;;;;4976989;28;20442;-65
2022/08/26 16:05:30;;;;;;;18.47;7.10;;;29.00;70.80;;;;;;4977561;28;20454;-63
2022/08/26 16:07:57;;;;;;;9.37;5.70;;;28.50;72.50;;;;;;4978746;28;20455;-62
2022/08/26 16:10:23;;;;;;;14.57;9.67;;;27.90;76.10;;;;;;4978225;28;20461;-62
2022/08/26 16:12:50;;;;;;;7.97;7.23;;;27.20;80.90;;;;;;4977427;28;20861;-62
2022/08/26 16:15:17;;;;;;;8.20;6.90;;;26.60;84.70;;;;;;4977073;28;20465;-62
2022/08/26 16:17:44;;;;;;;7.23;6.53;;;26.10;85.90;;;;;;4976841;28;20462;-63
2022/08/26 16:20:10;;;;;;;14.83;7.33;;;25.80;88.20;;;;;;4977204;28;20455;-64
2022/08/26 16:22:39;;;;;;;10.43;7.07;;;25.70;90.60;;;;;;4977113;28;20483;-65
2022/08/26 16:25:06;;;;;;;7.43;6.67;;;25.40;91.60;;;;;;4976536;28;20459;-64
2022/08/26 16:27:33;;;;;;;7.60;6.60;;;25.20;93.70;;;;;;4976685;28;20493;-65
2022/08/26 16:30:00;;;;;;;7.60;6.23;;;25.10;95.50;;;;;;4976309;28;20942;-63
2022/08/26 16:32:26;;;;;;;6.70;6.10;;;24.90;97.40;;;;;;4976286;28;20903;-63
2022/08/26 16:34:53;;;;;;;8.67;7.83;;;24.70;99.70;;;;;;4976667;28;20458;-62
2022/08/26 16:37:20;;;;;;;6.90;5.80;;;24.60;99.90;;;;;;4976628;28;20454;-64
2022/08/26 16:39:48;;;;;;;11.73;6.60;;;24.60;99.90;;;;;;4976499;28;20459;-62
2022/08/26 16:42:15;;;;;;;14.93;9.70;;;24.50;99.90;;;;;;4976266;28;20529;-62
2022/08/26 16:44:44;;;;;;;10.00;8.40;;;24.40;99.90;;;;;;4976315;28;20541;-61
2022/08/26 16:47:12;;;;;;;14.60;9.47;;;24.20;99.90;;;;;;4976232;28;20458;-62
2022/08/26 16:49:39;;;;;;;12.47;9.67;;;23.90;99.90;;;;;;4976213;28;20513;-61
2022/08/26 16:52:06;;;;;;;9.30;8.40;;;23.50;99.90;;;;;;4976188;28;20471;-62
2022/08/26 16:54:33;;;;;;;9.23;8.33;;;23.10;99.90;;;;;;4976353;28;20509;-63
2022/08/26 16:57:01;;;;;;;11.07;10.07;;;22.80;99.90;;;;;;4976255;28;20459;-62
2022/08/26 16:59:28;;;;;;;8.80;7.93;;;22.40;99.90;;;;;;4975989;28;20973;-61
2022/08/26 17:01:55;;;;;;;6.77;6.10;;;22.10;99.90;;;;;;4975713;28;20878;-62
2022/08/26 17:04:21;;;;;;;7.17;6.63;;;21.70;99.90;;;;;;4976013;28;20481;-62